Time;durP1;ratioP1;P1;durP2;ratioP2;P2;SDS_P1;SDS_P2;PMS_P1;PMS_P2;Temp;Humidity;BMP_temperature;BMP_pressure;BME280_temperature;BME280_humidity;BME280_pressure;Samples;Min_cycle;Max_cycle;Signal;HPM_P1;HPM_P2
2021/07/19 00:01:37;;;;;;;;;;;22.30;68.40;;;;;;5034011;28;19917;-75
2021/07/19 00:04:02;;;;;;;;;;;22.30;68.40;;;;;;5039815;28;20373;-75
2021/07/19 00:06:27;;;;;;;;;;;22.30;68.50;;;;;;5032244;28;20761;-75
2021/07/19 00:08:53;;;;;;;;;;;22.30;68.50;;;;;;5040169;28;20414;-74
2021/07/19 00:11:18;;;;;;;;;;;22.30;68.40;;;;;;5039868;28;19917;-75
2021/07/19 00:13:44;;;;;;;;;;;22.30;68.40;;;;;;5039248;28;19986;-75
2021/07/19 00:16:09;;;;;;;;;;;22.30;68.40;;;;;;5036322;28;20806;-74
2021/07/19 00:18:35;;;;;;;;;;;22.30;68.40;;;;;;5038917;28;19940;-75
2021/07/19 00:21:01;;;;;;;;;;;22.30;68.40;;;;;;5039674;28;19921;-74
2021/07/19 00:23:26;;;;;;;;;;;22.30;68.40;;;;;;5034769;28;19920;-74
2021/07/19 00:25:52;;;;;;;;;;;22.30;68.50;;;;;;5038379;28;19986;-74
2021/07/19 00:28:17;;;;;;;;;;;22.30;68.50;;;;;;5035704;28;20296;-75
2021/07/19 00:30:43;;;;;;;;;;;22.30;68.40;;;;;;5028861;28;19943;-74
2021/07/19 00:33:08;;;;;;;;;;;22.20;68.40;;;;;;5036603;28;19917;-74
2021/07/19 00:35:34;;;;;;;;;;;22.20;68.40;;;;;;5040151;28;19956;-74
2021/07/19 00:37:59;;;;;;;;;;;22.20;68.40;;;;;;5030601;28;20310;-74
2021/07/19 00:40:26;;;;;;;;;;;22.20;68.40;;;;;;5038798;28;19923;-75
2021/07/19 00:42:51;;;;;;;;;;;22.20;68.40;;;;;;5031419;28;19991;-74
2021/07/19 00:45:18;;;;;;;;;;;22.20;68.40;;;;;;5044247;28;19939;-74
2021/07/19 00:47:43;;;;;;;;;;;22.20;68.40;;;;;;5033337;28;19913;-74
2021/07/19 00:50:09;;;;;;;;;;;22.30;68.60;;;;;;5035011;28;20306;-75
2021/07/19 00:52:34;;;;;;;;;;;22.20;68.50;;;;;;5023024;28;19925;-75
2021/07/19 00:55:00;;;;;;;;;;;22.20;68.50;;;;;;5028629;28;19920;-74
2021/07/19 00:57:25;;;;;;;;;;;22.20;68.60;;;;;;5009057;28;19927;-71
2021/07/19 00:59:51;;;;;;;;;;;22.20;68.60;;;;;;5033556;28;19917;-75
2021/07/19 01:02:16;;;;;;;;;;;22.20;68.50;;;;;;5014170;28;19963;-75
2021/07/19 01:04:42;;;;;;;;;;;22.20;68.60;;;;;;5054724;28;20346;-74
2021/07/19 01:07:07;;;;;;;;;;;22.20;68.60;;;;;;5009316;28;19917;-75
2021/07/19 01:09:33;;;;;;;;;;;22.20;68.60;;;;;;5032662;28;19975;-75
2021/07/19 01:11:59;;;;;;;;;;;22.20;68.60;;;;;;5027797;28;19913;-74
2021/07/19 01:14:24;;;;;;;;;;;22.20;68.60;;;;;;5031427;28;19963;-75
2021/07/19 01:16:49;;;;;;;;;;;22.20;68.70;;;;;;5039148;28;19920;-75
2021/07/19 01:19:15;;;;;;;;;;;22.20;68.70;;;;;;5034926;28;20719;-75
2021/07/19 01:22:03;;;;;;;;;;;22.20;68.60;;;;;;5037385;28;19920;-75
2021/07/19 01:24:29;;;;;;;;;;;22.20;68.60;;;;;;5036059;28;20016;-75
2021/07/19 01:27:00;;;;;;;;;;;22.20;68.70;;;;;;5038955;28;20009;-74
2021/07/19 01:29:25;;;;;;;;;;;22.20;68.80;;;;;;5037743;28;19924;-75
2021/07/19 01:31:52;;;;;;;;;;;22.20;68.70;;;;;;5008199;28;19913;-75
2021/07/19 01:34:24;;;;;;;;;;;22.20;68.80;;;;;;5033299;28;19991;-75
2021/07/19 01:36:50;;;;;;;;;;;22.20;68.70;;;;;;5021959;28;19968;-75
2021/07/19 01:39:15;;;;;;;;;;;22.20;68.80;;;;;;5041483;28;20011;-74
2021/07/19 01:41:41;;;;;;;;;;;22.20;68.80;;;;;;5037372;28;20257;-76
2021/07/19 01:44:06;;;;;;;;;;;22.20;68.80;;;;;;5028965;28;19913;-76
2021/07/19 01:46:32;;;;;;;;;;;22.20;68.90;;;;;;5026726;28;20388;-74
2021/07/19 01:48:57;;;;;;;;;;;22.20;68.80;;;;;;5033060;28;20282;-75
2021/07/19 01:51:23;;;;;;;;;;;22.20;69.50;;;;;;5028426;28;20398;-74
2021/07/19 01:53:48;;;;;;;;;;;22.20;68.90;;;;;;5041458;28;20722;-75
2021/07/19 01:56:14;;;;;;;;;;;22.20;68.80;;;;;;5032678;28;19959;-75
2021/07/19 01:58:39;;;;;;;;;;;22.20;68.80;;;;;;5041632;28;19921;-74
2021/07/19 02:01:05;;;;;;;;;;;22.20;68.80;;;;;;5031659;28;19920;-75
2021/07/19 02:03:30;;;;;;;;;;;22.20;68.90;;;;;;5032854;28;20432;-72
2021/07/19 02:05:56;;;;;;;;;;;22.20;68.90;;;;;;5030063;28;19913;-74
2021/07/19 02:08:22;;;;;;;;;;;22.20;68.80;;;;;;5036128;28;19917;-74
2021/07/19 02:10:48;;;;;;;;;;;22.20;68.80;;;;;;5030125;28;19967;-74
2021/07/19 02:13:13;;;;;;;;;;;22.20;68.80;;;;;;5038285;28;19913;-74
2021/07/19 02:15:38;;;;;;;;;;;22.20;68.90;;;;;;5030271;28;20391;-74
2021/07/19 02:18:04;;;;;;;;;;;22.20;68.30;;;;;;5020297;28;19921;-74
2021/07/19 02:20:29;;;;;;;;;;;22.20;68.60;;;;;;5043222;28;19928;-73
2021/07/19 02:22:55;;;;;;;;;;;22.20;68.30;;;;;;5039224;28;19920;-74
2021/07/19 02:25:20;;;;;;;;;;;22.10;68.20;;;;;;5008315;28;19913;-75
2021/07/19 02:27:46;;;;;;;;;;;22.10;68.40;;;;;;4990898;28;20360;-73
2021/07/19 02:30:13;;;;;;;;;;;22.10;68.90;;;;;;5002586;28;19918;-73
2021/07/19 02:32:39;;;;;;;;;;;22.10;68.80;;;;;;5009939;28;19957;-74
2021/07/19 02:35:05;;;;;;;;;;;22.10;68.70;;;;;;5011856;28;20091;-72
2021/07/19 02:37:30;;;;;;;;;;;22.20;68.70;;;;;;5006081;28;20000;-74
2021/07/19 02:39:56;;;;;;;;;;;22.20;68.70;;;;;;5001661;28;19925;-73
2021/07/19 02:42:21;;;;;;;;;;;22.10;68.70;;;;;;5007011;28;19914;-73
2021/07/19 02:44:47;;;;;;;;;;;22.10;68.60;;;;;;4996487;28;19944;-74
2021/07/19 02:47:12;;;;;;;;;;;22.20;68.70;;;;;;4993830;28;19914;-72
2021/07/19 02:49:38;;;;;;;;;;;22.10;68.70;;;;;;5009612;28;20316;-73
2021/07/19 02:52:03;;;;;;;;;;;22.10;68.70;;;;;;5007999;28;19963;-73
2021/07/19 02:54:29;;;;;;;;;;;22.10;68.80;;;;;;5014196;28;19917;-74
2021/07/19 02:56:54;;;;;;;;;;;22.10;68.80;;;;;;5006486;28;20347;-74
2021/07/19 02:59:20;;;;;;;;;;;22.10;68.80;;;;;;5001106;28;19965;-75
2021/07/19 03:01:46;;;;;;;;;;;22.10;68.70;;;;;;5014705;28;19929;-74
2021/07/19 03:04:11;;;;;;;;;;;22.10;68.90;;;;;;5012956;28;19936;-73
2021/07/19 03:06:37;;;;;;;;;;;22.10;68.80;;;;;;5002547;28;19918;-74
2021/07/19 03:09:04;;;;;;;;;;;22.10;68.90;;;;;;5008025;28;19918;-73
2021/07/19 03:11:32;;;;;;;;;;;22.10;68.80;;;;;;5016370;28;19924;-73
2021/07/19 03:13:58;;;;;;;;;;;22.10;69.00;;;;;;5001218;28;19945;-74
2021/07/19 03:16:25;;;;;;;;;;;22.10;68.70;;;;;;5000324;28;19924;-74
2021/07/19 03:18:50;;;;;;;;;;;22.10;68.10;;;;;;4989659;28;20480;-74
2021/07/19 03:21:16;;;;;;;;;;;22.10;68.90;;;;;;5005471;28;19933;-73
2021/07/19 03:23:41;;;;;;;;;;;22.10;69.00;;;;;;4989912;28;20304;-74
2021/07/19 03:26:06;;;;;;;;;;;22.10;68.60;;;;;;5000803;28;20387;-74
2021/07/19 03:28:32;;;;;;;;;;;22.10;68.80;;;;;;5036861;28;19917;-71
2021/07/19 03:30:57;;;;;;;;;;;22.10;69.00;;;;;;5037278;28;19921;-74
2021/07/19 03:33:23;;;;;;;;;;;22.10;69.00;;;;;;5038617;28;19919;-74
2021/07/19 03:35:48;;;;;;;;;;;22.10;68.90;;;;;;5028071;28;20370;-74
2021/07/19 03:38:14;;;;;;;;;;;22.10;68.90;;;;;;5021459;28;20514;-74
2021/07/19 03:40:40;;;;;;;;;;;22.10;69.00;;;;;;5041072;28;19944;-74
2021/07/19 03:43:05;;;;;;;;;;;22.00;68.10;;;;;;5010921;28;20675;-75
2021/07/19 03:45:31;;;;;;;;;;;22.00;68.10;;;;;;5036943;28;19917;-74
2021/07/19 03:47:56;;;;;;;;;;;21.90;68.20;;;;;;5031433;28;19974;-73
2021/07/19 03:50:22;;;;;;;;;;;21.90;68.70;;;;;;5031734;28;19917;-75
2021/07/19 03:52:47;;;;;;;;;;;21.90;68.40;;;;;;5040332;28;20134;-74
2021/07/19 03:55:14;;;;;;;;;;;21.90;68.60;;;;;;5031549;28;20117;-75
2021/07/19 03:57:39;;;;;;;;;;;21.90;68.40;;;;;;5040691;28;19916;-74
2021/07/19 04:00:07;;;;;;;;;;;21.90;68.70;;;;;;5040653;28;19917;-74
2021/07/19 04:02:32;;;;;;;;;;;21.80;66.50;;;;;;5035547;28;19920;-72
2021/07/19 04:05:08;;;;;;;;;;;21.80;68.40;;;;;;5032958;28;19921;-73
2021/07/19 04:07:36;;;;;;;;;;;21.80;67.90;;;;;;5039870;28;19913;-74
2021/07/19 04:10:04;;;;;;;;;;;21.90;68.60;;;;;;5019358;28;20430;-74
2021/07/19 04:12:29;;;;;;;;;;;21.90;68.60;;;;;;5026225;28;20291;-75
2021/07/19 04:14:54;;;;;;;;;;;21.90;68.70;;;;;;5038809;28;19913;-74
2021/07/19 04:17:20;;;;;;;;;;;21.90;68.40;;;;;;5035668;28;19996;-74
2021/07/19 04:19:45;;;;;;;;;;;21.80;67.40;;;;;;5016110;28;22878;-74
2021/07/19 04:22:11;;;;;;;;;;;21.80;68.20;;;;;;5042027;28;19913;-74
2021/07/19 04:24:37;;;;;;;;;;;21.90;68.90;;;;;;5034504;28;20375;-74
2021/07/19 04:27:02;;;;;;;;;;;21.90;68.80;;;;;;5028132;28;19919;-75
2021/07/19 04:29:27;;;;;;;;;;;21.90;66.70;;;;;;5033541;28;20008;-71
2021/07/19 04:31:56;;;;;;;;;;;21.80;68.00;;;;;;5035290;28;19921;-71
2021/07/19 04:34:28;;;;;;;;;;;21.70;66.80;;;;;;5043469;28;19936;-71
2021/07/19 04:36:57;;;;;;;;;;;21.70;67.60;;;;;;5046232;28;20302;-72
2021/07/19 04:39:22;;;;;;;;;;;21.70;66.90;;;;;;5032545;28;20638;-73
2021/07/19 04:41:47;;;;;;;;;;;21.70;67.60;;;;;;5025495;28;19987;-70
2021/07/19 04:44:13;;;;;;;;;;;21.70;67.60;;;;;;5012323;28;19924;-68
2021/07/19 04:46:38;;;;;;;;;;;21.70;67.30;;;;;;5004711;28;20355;-70
2021/07/19 04:49:05;;;;;;;;;;;21.60;66.50;;;;;;4996570;28;19918;-72
2021/07/19 04:51:31;;;;;;;;;;;21.50;67.00;;;;;;4989445;28;19979;-67
2021/07/19 04:53:56;;;;;;;;;;;21.70;67.90;;;;;;5013483;28;19925;-68
2021/07/19 04:56:22;;;;;;;;;;;21.70;68.40;;;;;;5007791;28;19914;-69
2021/07/19 04:58:48;;;;;;;;;;;21.70;67.80;;;;;;5010089;28;19936;-70
2021/07/19 05:01:13;;;;;;;;;;;21.80;67.60;;;;;;4997175;28;20181;-69
2021/07/19 05:03:40;;;;;;;;;;;21.80;67.80;;;;;;5018667;28;20339;-70
2021/07/19 05:06:05;;;;;;;;;;;21.80;67.90;;;;;;4992571;28;19921;-70
2021/07/19 05:08:30;;;;;;;;;;;21.80;67.70;;;;;;4999750;28;19913;-69
2021/07/19 05:10:56;;;;;;;;;;;21.70;67.40;;;;;;5001901;28;19975;-68
2021/07/19 05:13:21;;;;;;;;;;;21.70;67.50;;;;;;5005317;28;19925;-66
2021/07/19 05:15:47;;;;;;;;;;;21.80;67.60;;;;;;4991655;28;19922;-70
2021/07/19 05:18:15;;;;;;;;;;;21.70;66.80;;;;;;4996481;28;19928;-71
2021/07/19 05:20:42;;;;;;;;;;;21.70;67.70;;;;;;4992814;28;20300;-69
2021/07/19 05:23:07;;;;;;;;;;;21.70;68.00;;;;;;5008907;28;20287;-69
2021/07/19 05:25:33;;;;;;;;;;;21.70;67.50;;;;;;4995279;28;20350;-69
2021/07/19 05:28:00;;;;;;;;;;;21.70;67.70;;;;;;5002436;28;20232;-68
2021/07/19 05:30:25;;;;;;;;;;;21.70;67.40;;;;;;4992611;28;19913;-69
2021/07/19 05:32:51;;;;;;;;;;;21.70;68.00;;;;;;4993569;28;19984;-69
2021/07/19 05:35:17;;;;;;;;;;;21.70;67.70;;;;;;4993619;28;19914;-67
2021/07/19 05:37:42;;;;;;;;;;;21.60;67.20;;;;;;5012947;28;19922;-69
2021/07/19 05:40:08;;;;;;;;;;;21.60;67.30;;;;;;4992820;28;19948;-68
2021/07/19 05:42:33;;;;;;;;;;;21.50;66.70;;;;;;4998366;28;19917;-69
2021/07/19 05:44:59;;;;;;;;;;;21.50;68.00;;;;;;4989961;28;19923;-71
2021/07/19 05:47:24;;;;;;;;;;;21.60;67.00;;;;;;4996292;28;19918;-71
2021/07/19 05:49:50;;;;;;;;;;;21.50;66.40;;;;;;4997288;28;21052;-70
2021/07/19 05:52:15;;;;;;;;;;;21.50;67.20;;;;;;5010876;28;19926;-71
2021/07/19 05:54:41;;;;;;;;;;;21.50;67.50;;;;;;5000562;28;19917;-70
2021/07/19 05:57:06;;;;;;;;;;;21.40;66.90;;;;;;4997295;28;20014;-69
2021/07/19 05:59:32;;;;;;;;;;;21.40;66.80;;;;;;4991444;28;20438;-66
2021/07/19 06:01:57;;;;;;;;;;;21.40;67.10;;;;;;4995261;28;19917;-65
2021/07/19 06:04:22;;;;;;;;;;;21.50;67.70;;;;;;4988791;28;20373;-69
2021/07/19 06:06:48;;;;;;;;;;;21.40;65.70;;;;;;4998093;28;19914;-69
2021/07/19 06:09:13;;;;;;;;;;;21.40;66.90;;;;;;4993207;28;19969;-69
2021/07/19 06:11:39;;;;;;;;;;;21.40;67.20;;;;;;4998645;28;19918;-68
2021/07/19 06:14:04;;;;;;;;;;;21.40;66.60;;;;;;4999526;28;19987;-69
2021/07/19 06:16:30;;;;;;;;;;;21.40;64.90;;;;;;5000126;28;19926;-69
2021/07/19 06:18:55;;;;;;;;;;;21.30;65.00;;;;;;4999339;28;19921;-69
2021/07/19 06:21:21;;;;;;;;;;;21.30;64.30;;;;;;4988864;28;20408;-69
2021/07/19 06:23:46;;;;;;;;;;;21.30;64.40;;;;;;4993172;28;19913;-69
2021/07/19 06:26:12;;;;;;;;;;;21.30;65.00;;;;;;4997206;28;19917;-71
2021/07/19 06:28:38;;;;;;;;;;;21.40;64.90;;;;;;4997455;28;19924;-69
2021/07/19 06:31:04;;;;;;;;;;;21.40;65.30;;;;;;4993205;28;19918;-71
2021/07/19 06:33:29;;;;;;;;;;;21.50;66.20;;;;;;5003448;28;19925;-71
2021/07/19 06:35:55;;;;;;;;;;;21.50;65.90;;;;;;4993030;28;20446;-68
2021/07/19 06:38:20;;;;;;;;;;;21.60;66.00;;;;;;4992385;28;20311;-70
2021/07/19 06:40:46;;;;;;;;;;;21.50;65.70;;;;;;4985385;28;19922;-68
2021/07/19 06:43:11;;;;;;;;;;;21.60;66.10;;;;;;5000015;28;20431;-70
2021/07/19 06:45:36;;;;;;;;;;;21.60;66.00;;;;;;4994636;28;19956;-71
2021/07/19 06:48:02;;;;;;;;;;;21.60;65.60;;;;;;4990081;28;19972;-71
2021/07/19 06:50:27;;;;;;;;;;;21.60;65.40;;;;;;4992659;28;19941;-71
2021/07/19 06:52:53;;;;;;;;;;;21.60;65.10;;;;;;4991916;28;20234;-71
2021/07/19 06:55:18;;;;;;;;;;;21.60;65.10;;;;;;4988014;28;19968;-71
2021/07/19 06:57:44;;;;;;;;;;;21.60;64.70;;;;;;5008658;28;19928;-70
2021/07/19 07:00:10;;;;;;;;;;;21.50;64.10;;;;;;4998889;28;19918;-69
2021/07/19 07:02:35;;;;;;;;;;;21.50;64.20;;;;;;5003231;28;20027;-70
2021/07/19 07:05:01;;;;;;;;;;;21.60;64.80;;;;;;4997950;28;19939;-70
2021/07/19 07:07:26;;;;;;;;;;;21.60;65.10;;;;;;4992151;28;19941;-70
2021/07/19 07:09:51;;;;;;;;;;;21.60;64.90;;;;;;4991805;28;20311;-70
2021/07/19 07:12:17;;;;;;;;;;;21.60;65.60;;;;;;5000621;28;19937;-70
2021/07/19 07:14:42;;;;;;;;;;;21.50;65.00;;;;;;4992406;28;19926;-71
2021/07/19 07:17:08;;;;;;;;;;;21.50;65.10;;;;;;4984916;28;19928;-71
2021/07/19 07:19:33;;;;;;;;;;;21.50;64.80;;;;;;4995131;28;20299;-71
2021/07/19 07:21:59;;;;;;;;;;;21.50;64.40;;;;;;4988049;28;19972;-70
2021/07/19 07:24:24;;;;;;;;;;;21.50;64.50;;;;;;4987390;28;19914;-70
2021/07/19 07:26:49;;;;;;;;;;;21.50;63.80;;;;;;4993917;28;20149;-70
2021/07/19 07:29:15;;;;;;;;;;;21.40;64.50;;;;;;4994241;28;20336;-70
2021/07/19 07:31:40;;;;;;;;;;;21.40;64.00;;;;;;4993727;28;20110;-71
2021/07/19 07:34:06;;;;;;;;;;;21.30;64.40;;;;;;5002053;28;19914;-71
2021/07/19 07:36:33;;;;;;;;;;;21.30;63.80;;;;;;4996369;28;19921;-70
2021/07/19 07:38:59;;;;;;;;;;;21.40;64.50;;;;;;5000387;28;19980;-70
2021/07/19 07:41:24;;;;;;;;;;;21.40;64.60;;;;;;4995070;28;20380;-70
2021/07/19 07:43:50;;;;;;;;;;;21.40;63.90;;;;;;5009783;28;19952;-70
2021/07/19 07:46:15;;;;;;;;;;;21.40;64.60;;;;;;4994058;28;19943;-69
2021/07/19 07:48:41;;;;;;;;;;;21.40;64.90;;;;;;4988321;28;19914;-70
2021/07/19 07:51:06;;;;;;;;;;;21.40;64.80;;;;;;5013684;28;19917;-71
2021/07/19 07:53:32;;;;;;;;;;;21.50;65.10;;;;;;5041231;28;19921;-71
2021/07/19 07:55:58;;;;;;;;;;;21.50;65.10;;;;;;5041518;28;20040;-68
2021/07/19 07:58:26;;;;;;;;;;;21.50;64.80;;;;;;5030308;28;19963;-71
2021/07/19 08:00:52;;;;;;;;;;;21.50;63.90;;;;;;5029730;28;19952;-69
2021/07/19 08:03:17;;;;;;;;;;;21.40;64.00;;;;;;5038350;28;20413;-68
2021/07/19 08:05:43;;;;;;;;;;;21.40;64.60;;;;;;5031436;28;19913;-67
2021/07/19 08:08:08;;;;;;;;;;;21.30;64.40;;;;;;5032577;28;19918;-68
2021/07/19 08:10:34;;;;;;;;;;;21.30;64.40;;;;;;5034900;28;19978;-67
2021/07/19 08:12:59;;;;;;;;;;;21.30;64.40;;;;;;5029411;28;19914;-67
2021/07/19 08:15:25;;;;;;;;;;;21.30;64.30;;;;;;5034283;28;19921;-67
2021/07/19 08:17:50;;;;;;;;;;;21.30;64.30;;;;;;5031988;28;20387;-68
2021/07/19 08:20:17;;;;;;;;;;;21.30;64.30;;;;;;5027313;28;19944;-69
2021/07/19 08:22:45;;;;;;;;;;;21.30;63.80;;;;;;5031502;28;19932;-69
2021/07/19 08:25:11;;;;;;;;;;;21.30;64.40;;;;;;5042094;28;20331;-69
2021/07/19 08:27:36;;;;;;;;;;;21.30;64.20;;;;;;5033670;28;19912;-69
2021/07/19 08:30:03;;;;;;;;;;;21.30;64.30;;;;;;5032838;28;19986;-69
2021/07/19 08:32:28;;;;;;;;;;;21.30;63.50;;;;;;5028701;28;19991;-65
2021/07/19 08:34:53;;;;;;;;;;;21.30;64.30;;;;;;5031425;28;20264;-68
2021/07/19 08:37:19;;;;;;;;;;;21.30;64.40;;;;;;5029791;28;19917;-68
2021/07/19 08:39:44;;;;;;;;;;;21.20;61.90;;;;;;5033061;28;19963;-69
2021/07/19 08:42:10;;;;;;;;;;;21.20;64.60;;;;;;5033154;28;20394;-69
2021/07/19 08:44:36;;;;;;;;;;;21.20;63.80;;;;;;5036171;28;19917;-68
2021/07/19 08:47:01;;;;;;;;;;;21.20;63.10;;;;;;5034973;28;19917;-69
2021/07/19 08:49:27;;;;;;;;;;;21.20;63.50;;;;;;5036194;28;19921;-68
2021/07/19 08:51:52;;;;;;;;;;;21.20;64.80;;;;;;5036232;28;20362;-69
2021/07/19 08:54:18;;;;;;;;;;;21.20;63.70;;;;;;5029635;28;19917;-69
2021/07/19 08:56:43;;;;;;;;;;;21.20;64.50;;;;;;5040171;28;19960;-69
2021/07/19 08:59:10;;;;;;;;;;;21.20;65.10;;;;;;5035268;28;20341;-69
2021/07/19 09:01:37;;;;;;;;;;;21.30;65.30;;;;;;5035485;28;19975;-69
2021/07/19 09:04:02;;;;;;;;;;;21.30;65.30;;;;;;5031872;28;21398;-68
2021/07/19 09:06:27;;;;;;;;;;;21.40;63.90;;;;;;5028413;28;19920;-68
2021/07/19 09:08:53;;;;;;;;;;;21.30;64.90;;;;;;5033318;28;19945;-70
2021/07/19 09:11:19;;;;;;;;;;;21.40;65.40;;;;;;5037033;28;20336;-70
2021/07/19 09:13:58;;;;;;;;;;;21.40;65.20;;;;;;5041850;28;19913;-70
2021/07/19 09:16:23;;;;;;;;;;;21.40;64.30;;;;;;5045087;28;19916;-70
2021/07/19 09:19:04;;;;;;;;;;;21.30;64.40;;;;;;5031262;28;20018;-70
2021/07/19 09:21:30;;;;;;;;;;;21.20;62.60;;;;;;5034157;28;20001;-71
2021/07/19 09:24:06;;;;;;;;;;;21.20;60.60;;;;;;5042707;28;19920;-70
2021/07/19 09:26:32;;;;;;;;;;;21.00;62.80;;;;;;5032890;28;19980;-69
2021/07/19 09:28:57;;;;;;;;;;;21.10;63.00;;;;;;5031429;28;20518;-70
2021/07/19 09:31:33;;;;;;;;;;;21.10;63.00;;;;;;5040906;28;19991;-70
2021/07/19 09:33:59;;;;;;;;;;;21.20;63.30;;;;;;5037117;28;19923;-69
2021/07/19 09:36:24;;;;;;;;;;;21.20;63.10;;;;;;5038392;28;19913;-68
2021/07/19 09:39:02;;;;;;;;;;;21.20;62.60;;;;;;5029039;28;19920;-66
2021/07/19 09:41:27;;;;;;;;;;;21.20;63.10;;;;;;5033987;28;19991;-67
2021/07/19 09:43:53;;;;;;;;;;;21.20;62.90;;;;;;5029928;28;20422;-70
2021/07/19 09:46:18;;;;;;;;;;;21.20;62.60;;;;;;5033618;28;19913;-71
2021/07/19 09:48:44;;;;;;;;;;;21.10;61.60;;;;;;5033038;28;19964;-70
2021/07/19 09:51:09;;;;;;;;;;;21.00;62.10;;;;;;5032005;28;19928;-69
2021/07/19 09:53:36;;;;;;;;;;;21.00;62.60;;;;;;5040742;28;19912;-69
2021/07/19 09:56:05;;;;;;;;;;;21.00;62.20;;;;;;5044451;28;20278;-68
2021/07/19 09:58:31;;;;;;;;;;;20.90;61.40;;;;;;5035765;28;19936;-69
2021/07/19 10:00:56;;;;;;;;;;;20.90;61.90;;;;;;5033572;28;19917;-68
2021/07/19 10:03:24;;;;;;;;;;;20.90;61.50;;;;;;5034134;28;19924;-69
2021/07/19 10:05:50;;;;;;;;;;;20.80;61.90;;;;;;5029871;28;20387;-69
2021/07/19 10:08:18;;;;;;;;;;;20.80;62.30;;;;;;5016932;28;19917;-70
2021/07/19 10:10:45;;;;;;;;;;;20.90;62.80;;;;;;5023838;28;19919;-70
2021/07/19 10:13:10;;;;;;;;;;;20.90;62.30;;;;;;5046133;28;19927;-70
2021/07/19 10:15:36;;;;;;;;;;;21.00;62.80;;;;;;5042389;28;19912;-70
2021/07/19 10:18:03;;;;;;;;;;;21.10;63.20;;;;;;5037376;28;20254;-67
2021/07/19 10:20:28;;;;;;;;;;;21.10;65.10;;;;;;5031448;28;20028;-70
2021/07/19 10:22:54;;;;;;;;;;;21.10;64.90;;;;;;5029834;28;19913;-71
2021/07/19 10:25:19;;;;;;;;;;;21.20;64.50;;;;;;5041445;28;19959;-70
2021/07/19 10:27:45;;;;;;;;;;;21.20;65.60;;;;;;5028655;28;19924;-70
2021/07/19 10:30:10;;;;;;;;;;;21.20;65.80;;;;;;5028949;28;19913;-70
2021/07/19 10:32:36;;;;;;;;;;;21.20;63.80;;;;;;5042788;28;20320;-73
2021/07/19 10:35:02;;;;;;;;;;;21.20;65.20;;;;;;5040089;28;20054;-69
2021/07/19 10:37:29;;;;;;;;;;;21.20;65.30;;;;;;5042526;28;20007;-69
2021/07/19 10:39:55;;;;;;;;;;;21.20;64.00;;;;;;5042494;28;19985;-69
2021/07/19 10:42:22;;;;;;;;;;;21.30;64.60;;;;;;5031342;28;19921;-68
2021/07/19 10:44:47;;;;;;;;;;;21.20;64.40;;;;;;5032908;28;19991;-69
2021/07/19 10:47:14;;;;;;;;;;;21.20;62.80;;;;;;5027086;28;19924;-69
2021/07/19 10:49:43;;;;;;;;;;;21.10;62.90;;;;;;5044494;28;19982;-69
2021/07/19 10:52:10;;;;;;;;;;;21.20;63.70;;;;;;5025638;28;19925;-65
2021/07/19 10:54:44;;;;;;;;;;;21.20;64.70;;;;;;5020532;28;19921;-68
2021/07/19 10:57:09;;;;;;;;;;;21.20;63.80;;;;;;5036750;28;20220;-68
2021/07/19 10:59:38;;;;;;;;;;;21.20;65.30;;;;;;5032136;28;20543;-67
2021/07/19 11:02:04;;;;;;;;;;;21.20;62.30;;;;;;5040740;28;19978;-68
2021/07/19 11:04:29;;;;;;;;;;;21.20;63.30;;;;;;5032855;28;19995;-67
2021/07/19 11:06:58;;;;;;;;;;;21.10;64.60;;;;;;5028171;28;19917;-67
2021/07/19 11:09:34;;;;;;;;;;;21.20;63.70;;;;;;5031502;28;20017;-67
2021/07/19 11:12:06;;;;;;;;;;;21.20;62.20;;;;;;5036294;28;19952;-68
2021/07/19 11:14:39;;;;;;;;;;;21.20;62.50;;;;;;5037497;28;19913;-69
2021/07/19 11:17:07;;;;;;;;;;;21.20;62.20;;;;;;5040202;28;20283;-68
2021/07/19 11:19:36;;;;;;;;;;;21.20;63.70;;;;;;5031329;28;19925;-68
2021/07/19 11:22:05;;;;;;;;;;;21.10;60.20;;;;;;5035651;28;20357;-70
2021/07/19 11:24:37;;;;;;;;;;;21.00;59.80;;;;;;5021717;28;19953;-68
2021/07/19 11:27:02;;;;;;;;;;;21.10;62.40;;;;;;5036948;28;20182;-70
2021/07/19 11:29:28;;;;;;;;;;;21.10;62.00;;;;;;5031460;28;19971;-69
2021/07/19 11:32:07;;;;;;;;;;;21.10;61.10;;;;;;5032576;28;20538;-68
2021/07/19 11:34:34;;;;;;;;;;;21.10;62.00;;;;;;5033076;28;19998;-68
2021/07/19 11:37:00;;;;;;;;;;;21.20;61.70;;;;;;5040432;28;20462;-68
2021/07/19 11:39:25;;;;;;;;;;;21.20;61.60;;;;;;5036370;28;19913;-69
2021/07/19 11:42:00;;;;;;;;;;;21.10;61.70;;;;;;5027339;28;19920;-69
2021/07/19 11:44:27;;;;;;;;;;;21.10;62.00;;;;;;5043285;28;19984;-69
2021/07/19 11:46:52;;;;;;;;;;;21.10;61.20;;;;;;5033260;28;19948;-68
2021/07/19 11:49:21;;;;;;;;;;;21.20;62.00;;;;;;5041377;28;20453;-68
2021/07/19 11:51:46;;;;;;;;;;;21.20;62.10;;;;;;5034051;28;19925;-67
2021/07/19 11:54:12;;;;;;;;;;;21.10;58.50;;;;;;5033912;28;19913;-67
2021/07/19 11:56:38;;;;;;;;;;;21.10;60.90;;;;;;5023624;28;19913;-70
2021/07/19 11:59:04;;;;;;;;;;;21.20;61.80;;;;;;5041176;28;19919;-69
2021/07/19 12:01:30;;;;;;;;;;;21.20;60.40;;;;;;5031368;28;19924;-69
2021/07/19 12:03:56;;;;;;;;;;;21.20;61.40;;;;;;5039773;28;19917;-69
2021/07/19 12:06:22;;;;;;;;;;;21.20;59.50;;;;;;5026599;28;19919;-68
2021/07/19 12:09:00;;;;;;;;;;;21.20;59.90;;;;;;5031189;28;20214;-69
2021/07/19 12:11:25;;;;;;;;;;;21.20;60.10;;;;;;5031341;28;19912;-67
2021/07/19 12:13:55;;;;;;;;;;;21.30;59.90;;;;;;5031672;28;20028;-68
2021/07/19 12:16:20;;;;;;;;;;;21.20;60.40;;;;;;5039233;28;19913;-69
2021/07/19 12:18:48;;;;;;;;;;;21.20;60.40;;;;;;5029430;28;20449;-68
2021/07/19 12:21:13;;;;;;;;;;;21.20;59.50;;;;;;5038547;28;20004;-66
2021/07/19 12:23:43;;;;;;;;;;;21.20;59.40;;;;;;5026112;28;20360;-68
2021/07/19 12:26:09;;;;;;;;;;;21.20;59.80;;;;;;5035196;28;19960;-68
2021/07/19 12:28:34;;;;;;;;;;;21.20;59.80;;;;;;5038941;28;19923;-65
2021/07/19 12:31:15;;;;;;;;;;;21.10;58.20;;;;;;5026291;28;19913;-68
2021/07/19 12:33:41;;;;;;;;;;;21.10;60.00;;;;;;5041734;28;19918;-70
2021/07/19 12:36:06;;;;;;;;;;;21.10;59.90;;;;;;5027557;28;19919;-69
2021/07/19 12:38:31;;;;;;;;;;;21.10;59.00;;;;;;5040086;28;20367;-69
2021/07/19 12:40:57;;;;;;;;;;;21.10;59.10;;;;;;5032298;28;19920;-69
2021/07/19 12:43:23;;;;;;;;;;;21.10;58.30;;;;;;5033807;28;19917;-69
2021/07/19 12:45:49;;;;;;;;;;;21.10;58.00;;;;;;5038077;28;19924;-69
2021/07/19 12:48:14;;;;;;;;;;;21.10;58.10;;;;;;5026657;28;20284;-69
2021/07/19 12:50:40;;;;;;;;;;;21.10;58.00;;;;;;5042340;28;20295;-67
2021/07/19 12:53:12;;;;;;;;;;;21.10;58.40;;;;;;5034867;28;19971;-69
2021/07/19 12:55:38;;;;;;;;;;;21.10;57.90;;;;;;5033139;28;20018;-68
2021/07/19 12:58:03;;;;;;;;;;;21.10;58.30;;;;;;5038631;28;19913;-66
2021/07/19 13:00:29;;;;;;;;;;;21.10;57.60;;;;;;5042847;28;19917;-68
2021/07/19 13:03:05;;;;;;;;;;;21.00;58.00;;;;;;5040065;28;19914;-69
2021/07/19 13:05:30;;;;;;;;;;;20.90;56.00;;;;;;5039237;28;19917;-66
2021/07/19 13:07:56;;;;;;;;;;;21.00;58.20;;;;;;5025818;28;19939;-69
2021/07/19 13:10:25;;;;;;;;;;;21.00;59.20;;;;;;5030222;28;19924;-68
2021/07/19 13:12:50;;;;;;;;;;;21.00;57.60;;;;;;5038636;28;19917;-69
2021/07/19 13:15:20;;;;;;;;;;;20.90;56.70;;;;;;5038753;28;19917;-69
2021/07/19 13:17:45;;;;;;;;;;;21.00;57.70;;;;;;5034996;28;19914;-68
2021/07/19 13:20:11;;;;;;;;;;;21.00;58.40;;;;;;5030039;28;19967;-68
2021/07/19 13:22:38;;;;;;;;;;;21.00;57.90;;;;;;5034980;28;19916;-70
2021/07/19 13:25:11;;;;;;;;;;;21.00;56.50;;;;;;5034158;28;19920;-69
2021/07/19 13:27:40;;;;;;;;;;;20.90;56.40;;;;;;5040848;28;20004;-70
2021/07/19 13:30:05;;;;;;;;;;;21.00;57.40;;;;;;5034976;28;19921;-70
2021/07/19 13:32:31;;;;;;;;;;;20.90;56.60;;;;;;5041191;28;19990;-69
2021/07/19 13:34:59;;;;;;;;;;;20.90;56.20;;;;;;5035038;28;19945;-70
2021/07/19 13:37:25;;;;;;;;;;;20.90;55.70;;;;;;5034170;28;19916;-69
2021/07/19 13:39:51;;;;;;;;;;;21.00;57.30;;;;;;5037067;28;19925;-69
2021/07/19 13:42:16;;;;;;;;;;;21.00;56.10;;;;;;5036481;28;20383;-70
2021/07/19 13:44:42;;;;;;;;;;;21.00;55.60;;;;;;5032321;28;19917;-70
2021/07/19 13:47:07;;;;;;;;;;;21.00;57.20;;;;;;5042189;28;19917;-68
2021/07/19 13:49:33;;;;;;;;;;;21.00;56.20;;;;;;5039632;28;19924;-65
2021/07/19 13:51:58;;;;;;;;;;;21.10;57.30;;;;;;5040106;28;19925;-68
2021/07/19 13:54:24;;;;;;;;;;;21.10;57.10;;;;;;5042849;28;19966;-70
2021/07/19 13:56:49;;;;;;;;;;;21.10;57.70;;;;;;5038453;28;19921;-70
2021/07/19 13:59:15;;;;;;;;;;;21.10;58.10;;;;;;5034139;28;19924;-68
2021/07/19 14:01:40;;;;;;;;;;;21.10;56.10;;;;;;5032448;28;20019;-68
2021/07/19 14:04:06;;;;;;;;;;;21.10;57.90;;;;;;5040360;28;20433;-68
2021/07/19 14:06:31;;;;;;;;;;;21.10;57.60;;;;;;5034494;28;20173;-70
2021/07/19 14:08:57;;;;;;;;;;;21.10;57.70;;;;;;5027099;28;19913;-70
2021/07/19 14:11:22;;;;;;;;;;;21.00;57.20;;;;;;5040456;28;20421;-69